createdAt,value
2022-09-09T00:00:19.307Z,12.41
2022-09-09T00:02:23.620Z,12.32
2022-09-09T00:04:34.229Z,12.34
2022-09-09T00:06:58.504Z,12.40
2022-09-09T00:09:16.780Z,12.25
2022-09-09T00:11:31.600Z,12.11
2022-09-09T00:13:47.413Z,12.01
2022-09-09T00:16:07.531Z,12.25
2022-09-09T00:18:24.848Z,12.30
2022-09-09T00:20:53.999Z,12.23
2022-09-09T00:23:15.559Z,12.02
2022-09-09T00:25:30.387Z,11.79
2022-09-09T00:27:51.858Z,11.74
2022-09-09T00:30:19.534Z,11.76
2022-09-09T00:32:23.357Z,11.78
2022-09-09T00:34:27.551Z,11.76
2022-09-09T00:36:29.537Z,11.68
2022-09-09T00:38:46.034Z,11.48
2022-09-09T00:41:10.358Z,11.76
2022-09-09T00:43:20.111Z,11.65
2022-09-09T00:45:52.754Z,11.76
2022-09-09T00:47:55.252Z,11.65
2022-09-09T00:50:15.791Z,11.76
2022-09-09T00:52:31.311Z,11.79
2022-09-09T00:54:40.250Z,11.82
2022-09-09T00:57:04.885Z,11.78
2022-09-09T00:59:17.456Z,11.69
2022-09-09T01:01:19.235Z,11.69
2022-09-09T01:03:36.047Z,11.54
2022-09-09T01:05:49.782Z,11.61
2022-09-09T01:07:54.038Z,11.76
2022-09-09T01:10:01.822Z,11.64
2022-09-09T01:12:19.451Z,11.64
2022-09-09T01:14:36.374Z,11.69
2022-09-09T01:16:38.837Z,11.65
2022-09-09T01:18:52.495Z,11.66
2022-09-09T01:21:10.803Z,11.71
2022-09-09T01:23:38.999Z,11.59
2022-09-09T01:26:11.566Z,11.70
2022-09-09T01:28:20.417Z,11.63
2022-09-09T01:30:23.085Z,11.52
2022-09-09T01:33:00.396Z,11.49
2022-09-09T01:35:04.473Z,11.45
2022-09-09T01:37:09.323Z,11.59
2022-09-09T01:39:12.419Z,11.60
2022-09-09T01:41:14.204Z,11.51
2022-09-09T01:43:16.080Z,11.69
2022-09-09T01:45:17.883Z,11.67
2022-09-09T01:47:19.698Z,11.60
2022-09-09T01:49:21.512Z,11.53
2022-09-09T01:51:24.110Z,11.48
2022-09-09T01:53:25.878Z,11.54
2022-09-09T01:55:39.538Z,11.43
2022-09-09T01:57:56.186Z,11.42
2022-09-09T02:00:13.639Z,11.66
2022-09-09T02:02:31.763Z,11.53
2022-09-09T02:04:41.111Z,11.52
2022-09-09T02:06:45.778Z,11.53
2022-09-09T02:08:50.632Z,11.64
2022-09-09T02:11:02.108Z,11.62
2022-09-09T02:13:10.899Z,11.69
2022-09-09T02:15:25.159Z,11.58
2022-09-09T02:17:35.243Z,11.62
2022-09-09T02:19:43.586Z,11.62
2022-09-09T02:21:47.810Z,11.51
2022-09-09T02:23:51.563Z,11.65
2022-09-09T02:25:54.712Z,11.56
2022-09-09T02:27:57.608Z,11.53
2022-09-09T02:30:01.768Z,11.62
2022-09-09T02:32:07.329Z,11.53
2022-09-09T02:34:11.079Z,11.62
2022-09-09T02:36:14.344Z,11.64
2022-09-09T02:38:18.278Z,11.62
2022-09-09T02:40:20.284Z,11.63
2022-09-09T02:42:22.359Z,11.75
2022-09-09T02:44:24.099Z,11.92
2022-09-09T02:46:36.710Z,11.93
2022-09-09T02:49:07.277Z,11.86
2022-09-09T02:51:16.696Z,11.91
2022-09-09T02:53:22.008Z,11.76
2022-09-09T02:55:58.980Z,11.77
2022-09-09T02:58:01.280Z,11.68
2022-09-09T03:00:04.984Z,11.87
2022-09-09T03:02:06.668Z,11.89
2022-09-09T03:04:08.580Z,11.82
2022-09-09T03:06:10.330Z,11.71
2022-09-09T03:08:13.056Z,11.67
2022-09-09T03:10:14.955Z,11.71
2022-09-09T03:12:16.696Z,11.73
2022-09-09T03:14:18.495Z,11.89
2022-09-09T03:16:20.328Z,11.93
2022-09-09T03:18:22.427Z,11.88
2022-09-09T03:20:29.602Z,12.01
2022-09-09T03:22:31.386Z,11.97
2022-09-09T03:24:33.141Z,11.97
2022-09-09T03:26:34.882Z,12.02
2022-09-09T03:28:36.731Z,12.07
2022-09-09T03:30:38.561Z,12.11
2022-09-09T03:32:40.288Z,12.11
2022-09-09T03:34:42.044Z,12.09
2022-09-09T03:36:43.785Z,12.00
2022-09-09T03:38:45.497Z,12.08
2022-09-09T03:40:55.169Z,12.00
2022-09-09T03:42:56.905Z,12.03
2022-09-09T03:44:58.699Z,12.01
2022-09-09T03:47:00.491Z,12.03
2022-09-09T03:49:02.235Z,11.92
2022-09-09T03:51:04.093Z,11.75
2022-09-09T03:53:05.833Z,11.94
2022-09-09T03:55:08.576Z,11.75
2022-09-09T03:57:11.195Z,11.89
2022-09-09T03:59:12.932Z,12.03
2022-09-09T04:01:16.123Z,11.81
2022-09-09T04:03:17.989Z,11.85
2022-09-09T04:05:19.728Z,11.94
2022-09-09T04:07:21.542Z,11.98
2022-09-09T04:09:24.446Z,11.98
2022-09-09T04:11:26.302Z,11.84
2022-09-09T04:13:28.382Z,11.92
2022-09-09T04:15:30.149Z,11.70
2022-09-09T04:17:31.907Z,11.83
2022-09-09T04:19:34.362Z,11.86
2022-09-09T04:21:36.105Z,11.82
2022-09-09T04:23:37.837Z,11.80
2022-09-09T04:25:45.208Z,11.90
2022-09-09T04:27:46.936Z,11.85
2022-09-09T04:29:48.687Z,11.87
2022-09-09T04:31:50.681Z,11.78
2022-09-09T04:33:52.862Z,11.80
2022-09-09T04:35:54.980Z,11.71
2022-09-09T04:37:56.772Z,11.80
2022-09-09T04:39:58.569Z,11.77
2022-09-09T04:42:00.320Z,11.70
2022-09-09T04:44:02.356Z,11.73
2022-09-09T04:46:05.104Z,11.74
2022-09-09T04:48:07.367Z,11.66
2022-09-09T04:50:09.685Z,11.79
2022-09-09T04:52:11.468Z,11.86
2022-09-09T04:54:13.249Z,11.96
2022-09-09T04:56:17.066Z,11.87
2022-09-09T04:58:18.884Z,11.93
2022-09-09T05:00:20.763Z,12.06
2022-09-09T05:02:22.586Z,12.14
2022-09-09T05:04:24.363Z,12.06
2022-09-09T05:06:26.254Z,11.99
2022-09-09T05:08:27.995Z,11.94
2022-09-09T05:10:29.879Z,12.09
2022-09-09T05:12:31.832Z,12.18
2022-09-09T05:14:33.571Z,12.14
2022-09-09T05:16:35.560Z,12.21
2022-09-09T05:18:37.624Z,12.10
2022-09-09T05:20:39.492Z,12.05
2022-09-09T05:22:41.229Z,12.09
2022-09-09T05:24:43.146Z,12.13
2022-09-09T05:26:45.082Z,11.85
2022-09-09T05:28:47.821Z,11.98
2022-09-09T05:30:57.263Z,11.75
2022-09-09T05:32:58.977Z,11.89
2022-09-09T05:35:00.895Z,11.90
2022-09-09T05:37:02.625Z,11.85
2022-09-09T05:39:04.651Z,11.93
2022-09-09T05:41:07.392Z,11.98
2022-09-09T05:43:09.105Z,11.99
2022-09-09T05:45:10.997Z,12.14
2022-09-09T05:47:12.796Z,12.02
2022-09-09T05:49:14.538Z,12.14
2022-09-09T05:51:19.337Z,12.34
2022-09-09T05:53:21.289Z,12.48
2022-09-09T05:55:23.050Z,12.39
2022-09-09T05:57:24.821Z,12.34
2022-09-09T05:59:26.618Z,12.14
2022-09-09T06:01:30.157Z,12.23
2022-09-09T06:03:32.160Z,12.16
2022-09-09T06:05:33.879Z,12.26
2022-09-09T06:07:35.647Z,12.18
2022-09-09T06:09:37.388Z,12.27
2022-09-09T06:11:41.006Z,12.34
2022-09-09T06:13:43.082Z,12.48
2022-09-09T06:15:52.187Z,12.52
2022-09-09T06:17:56.758Z,12.40
2022-09-09T06:19:58.581Z,12.40
2022-09-09T06:22:00.322Z,12.37
2022-09-09T06:24:02.475Z,12.54
2022-09-09T06:26:12.090Z,12.71
2022-09-09T06:28:13.869Z,12.66
2022-09-09T06:30:15.634Z,12.66
2022-09-09T06:32:17.425Z,12.49
2022-09-09T06:34:19.189Z,12.64
2022-09-09T06:36:31.579Z,12.65
2022-09-09T06:38:33.386Z,12.65
2022-09-09T06:40:35.212Z,12.55
2022-09-09T06:42:36.977Z,12.72
2022-09-09T06:44:38.721Z,12.71
2022-09-09T06:46:40.745Z,12.63
2022-09-09T06:48:44.006Z,12.48
2022-09-09T06:50:45.755Z,12.40
2022-09-09T06:52:48.107Z,12.50
2022-09-09T06:54:49.877Z,12.57
2022-09-09T06:56:51.633Z,12.76
2022-09-09T06:58:54.076Z,12.65
2022-09-09T07:01:08.751Z,12.61
2022-09-09T07:03:11.780Z,12.65
2022-09-09T07:05:13.515Z,12.51
2022-09-09T07:07:15.264Z,12.44
2022-09-09T07:09:17.391Z,12.49
2022-09-09T07:11:20.784Z,12.41
2022-09-09T07:13:26.865Z,12.51
2022-09-09T07:15:28.756Z,12.56
2022-09-09T07:17:30.506Z,12.40
2022-09-09T07:19:32.287Z,12.64
2022-09-09T07:21:34.755Z,12.69
2022-09-09T07:23:36.670Z,12.65
2022-09-09T07:25:38.409Z,12.78
2022-09-09T07:27:40.200Z,12.69
2022-09-09T07:29:41.929Z,12.48
2022-09-09T07:31:43.711Z,12.65
2022-09-09T07:33:46.380Z,12.74
2022-09-09T07:35:48.102Z,12.62
2022-09-09T07:37:51.096Z,12.73
2022-09-09T07:39:53.055Z,12.76
2022-09-09T07:41:54.948Z,12.62
2022-09-09T07:43:56.984Z,12.68
2022-09-09T07:46:00.263Z,12.80
2022-09-09T07:48:02.577Z,12.76
2022-09-09T07:50:04.553Z,12.74
2022-09-09T07:54:15.129Z,12.91
2022-09-09T07:56:19.082Z,12.71
2022-09-09T07:58:20.858Z,12.84
2022-09-09T08:00:22.590Z,12.86
2022-09-09T08:02:25.606Z,12.96
2022-09-09T08:04:27.771Z,13.10
2022-09-09T08:06:32.380Z,13.16
2022-09-09T08:08:35.074Z,13.33
2022-09-09T08:10:47.797Z,13.22
2022-09-09T08:13:01.781Z,13.29
2022-09-09T08:15:11.914Z,13.12
2022-09-09T08:17:13.638Z,13.04
2022-09-09T08:19:16.010Z,12.99
2022-09-09T08:21:21.032Z,13.17
2022-09-09T08:23:29.895Z,13.16
2022-09-09T08:25:31.776Z,12.90
2022-09-09T08:27:33.542Z,13.05
2022-09-09T08:29:35.334Z,13.11
2022-09-09T08:31:39.448Z,12.91
2022-09-09T08:33:42.868Z,13.02
2022-09-09T08:35:51.637Z,13.01
2022-09-09T08:37:55.736Z,13.15
2022-09-09T08:39:57.478Z,13.23
2022-09-09T08:42:44.777Z,13.45
2022-09-09T08:45:13.096Z,13.37
2022-09-09T08:48:02.075Z,12.95
2022-09-09T08:50:19.079Z,13.14
2022-09-09T08:52:26.963Z,13.37
2022-09-09T08:54:51.173Z,13.34
2022-09-09T08:56:54.138Z,13.48
2022-09-09T08:58:57.204Z,13.56
2022-09-09T09:01:11.136Z,13.59
2022-09-09T09:03:34.768Z,13.56
2022-09-09T09:05:57.434Z,13.78
2022-09-09T09:08:11.518Z,13.78
2022-09-09T09:10:41.709Z,13.63
2022-09-09T09:12:47.066Z,13.61
2022-09-09T09:14:49.606Z,13.68
2022-09-09T09:16:56.840Z,13.75
2022-09-09T09:18:59.610Z,13.70
2022-09-09T09:21:17.023Z,14.00
2022-09-09T09:23:36.448Z,14.05
2022-09-09T09:25:42.173Z,13.96
2022-09-09T09:28:13.831Z,13.98
2022-09-09T09:30:26.778Z,13.96
2022-09-09T09:32:35.131Z,14.10
2022-09-09T09:34:36.851Z,14.12
2022-09-09T09:36:47.830Z,14.11
2022-09-09T09:41:33.819Z,14.13
2022-09-09T09:43:38.354Z,14.27
2022-09-09T09:45:55.342Z,14.27
2022-09-09T09:48:08.295Z,14.01
2022-09-09T09:50:21.123Z,14.22
2022-09-09T09:52:25.561Z,14.26
2022-09-09T09:54:34.253Z,14.43
2022-09-09T09:56:36.160Z,14.38
2022-09-09T09:58:51.701Z,14.38
2022-09-09T10:00:54.997Z,14.32
2022-09-09T10:02:56.787Z,14.14
2022-09-09T10:05:10.464Z,14.16
2022-09-09T10:07:21.371Z,14.18
2022-09-09T10:09:27.807Z,14.13
2022-09-09T10:11:44.441Z,14.21
2022-09-09T10:14:13.765Z,14.23
2022-09-09T10:16:36.581Z,14.19
2022-09-09T10:19:05.279Z,14.19
2022-09-09T10:21:33.496Z,14.10
2022-09-09T10:24:08.399Z,14.21
2022-09-09T10:26:09.947Z,14.18
2022-09-09T10:28:11.686Z,14.26
2022-09-09T10:30:13.531Z,14.33
2022-09-09T10:32:58.562Z,14.44
2022-09-09T10:35:04.313Z,14.57
2022-09-09T10:37:20.911Z,14.75
2022-09-09T10:39:43.181Z,14.58
2022-09-09T10:42:05.893Z,14.64
2022-09-09T10:44:16.142Z,14.75
2022-09-09T10:46:47.024Z,14.87
2022-09-09T10:49:03.558Z,14.85
2022-09-09T10:51:30.108Z,15.04
2022-09-09T10:53:52.264Z,15.21
2022-09-09T10:56:16.408Z,15.35
2022-09-09T10:59:01.371Z,15.59
2022-09-09T11:01:14.886Z,15.63
2022-09-09T11:03:23.501Z,15.64
2022-09-09T11:05:32.503Z,15.82
2022-09-09T11:07:45.608Z,15.93
2022-09-09T11:09:55.065Z,15.95
2022-09-09T11:11:58.486Z,15.99
2022-09-09T11:14:09.680Z,16.22
2022-09-09T11:16:35.166Z,16.14
2022-09-09T11:18:40.882Z,16.10
2022-09-09T11:20:44.373Z,16.09
2022-09-09T11:23:12.339Z,15.95
2022-09-09T11:25:22.097Z,16.25
2022-09-09T11:27:54.630Z,16.52
2022-09-09T11:30:51.713Z,16.24
2022-09-09T11:32:56.192Z,16.15
2022-09-09T11:35:19.809Z,15.77
2022-09-09T11:37:51.219Z,15.90
2022-09-09T11:40:10.641Z,15.75
2022-09-09T11:42:18.448Z,15.89
2022-09-09T11:44:31.366Z,16.13
2022-09-09T11:46:40.168Z,16.18
2022-09-09T11:48:43.145Z,16.30
2022-09-09T11:50:44.936Z,16.29
2022-09-09T11:52:48.811Z,16.24
2022-09-09T11:54:51.213Z,16.44
2022-09-09T11:56:53.030Z,16.54
2022-09-09T11:59:06.199Z,16.47
2022-09-09T12:01:47.591Z,16.27
2022-09-09T12:03:56.085Z,16.25
2022-09-09T12:05:59.444Z,16.23
2022-09-09T12:08:03.234Z,16.12
2022-09-09T12:10:26.908Z,16.36
2022-09-09T12:12:39.240Z,16.54
2022-09-09T12:14:58.605Z,16.92
2022-09-09T12:17:30.449Z,17.15
2022-09-09T12:19:32.222Z,17.39
2022-09-09T12:21:59.470Z,17.57
2022-09-09T12:24:08.798Z,17.47
2022-09-09T12:26:41.206Z,17.38
2022-09-09T12:29:10.044Z,16.87
2022-09-09T12:31:20.823Z,16.86
2022-09-09T12:33:22.673Z,16.82
2022-09-09T12:35:29.635Z,16.74
2022-09-09T12:37:41.557Z,16.93
2022-09-09T12:39:52.614Z,16.46
2022-09-09T12:41:55.204Z,16.46
2022-09-09T12:44:12.041Z,16.57
2022-09-09T12:46:26.085Z,16.64
2022-09-09T12:48:32.097Z,16.85
2022-09-09T12:50:38.283Z,17.17
2022-09-09T12:52:40.131Z,17.30
2022-09-09T12:54:46.703Z,17.59
2022-09-09T12:56:49.932Z,17.67
2022-09-09T12:58:53.158Z,17.24
2022-09-09T13:00:57.164Z,17.22
2022-09-09T13:03:00.776Z,17.46
2022-09-09T13:05:37.772Z,17.24
2022-09-09T13:07:39.562Z,17.28
2022-09-09T13:09:41.607Z,17.39
2022-09-09T13:11:50.493Z,17.50
2022-09-09T13:13:54.805Z,17.85
2022-09-09T13:16:01.980Z,17.99
2022-09-09T13:18:14.239Z,18.02
2022-09-09T13:20:20.652Z,17.61
2022-09-09T13:22:31.509Z,17.61
2022-09-09T13:24:35.419Z,17.57
2022-09-09T13:26:37.251Z,17.64
2022-09-09T13:28:39.002Z,17.94
2022-09-09T13:30:40.829Z,18.06
2022-09-09T13:32:42.704Z,18.18
2022-09-09T13:34:54.548Z,18.20
2022-09-09T13:37:07.610Z,17.99
2022-09-09T13:39:18.115Z,18.05
2022-09-09T13:41:25.628Z,18.24
2022-09-09T13:43:29.154Z,18.01
2022-09-09T13:45:30.859Z,18.24
2022-09-09T13:47:37.396Z,18.41
2022-09-09T13:49:39.179Z,18.64
2022-09-09T13:51:44.356Z,18.46
2022-09-09T13:53:47.121Z,18.42
2022-09-09T13:55:53.074Z,18.53
2022-09-09T13:58:03.075Z,18.40
2022-09-09T14:00:06.368Z,18.54
2022-09-09T14:02:08.613Z,18.15
2022-09-09T14:04:11.450Z,18.31
2022-09-09T14:06:13.869Z,18.30
2022-09-09T14:08:27.934Z,18.35
2022-09-09T14:10:29.733Z,18.43
2022-09-09T14:12:31.678Z,18.43
2022-09-09T14:14:33.457Z,18.35
2022-09-09T14:16:35.479Z,18.15
2022-09-09T14:18:37.738Z,18.11
2022-09-09T14:20:39.528Z,18.05
2022-09-09T14:22:41.247Z,18.05
2022-09-09T14:24:43.029Z,18.04
2022-09-09T14:26:44.794Z,18.30
2022-09-09T14:29:02.199Z,18.22
2022-09-09T14:31:05.320Z,18.28
2022-09-09T14:33:08.193Z,17.92
2022-09-09T14:35:10.109Z,17.66
2022-09-09T14:37:12.218Z,17.56
2022-09-09T14:39:14.069Z,17.68
2022-09-09T14:41:19.171Z,17.75
2022-09-09T14:43:21.001Z,17.53
2022-09-09T14:45:22.942Z,17.66
2022-09-09T14:47:24.699Z,17.60
2022-09-09T14:49:26.424Z,17.72
2022-09-09T14:51:28.254Z,17.33
2022-09-09T14:53:30.114Z,17.23
2022-09-09T14:55:31.835Z,17.26
2022-09-09T14:57:33.763Z,17.42
2022-09-09T14:59:35.545Z,17.25
2022-09-09T15:01:37.348Z,17.35
2022-09-09T15:03:40.683Z,17.58
2022-09-09T15:05:42.444Z,17.88
2022-09-09T15:07:44.158Z,17.57
2022-09-09T15:09:46.312Z,17.39
2022-09-09T15:11:48.146Z,17.48
2022-09-09T15:13:52.687Z,17.60
2022-09-09T15:15:54.457Z,17.52
2022-09-09T15:17:56.232Z,17.53
2022-09-09T15:19:58.124Z,17.31
2022-09-09T15:21:59.955Z,17.19
2022-09-09T15:24:01.945Z,17.27
2022-09-09T15:26:04.507Z,17.17
2022-09-09T15:28:06.261Z,17.16
2022-09-09T15:30:08.721Z,16.93
2022-09-09T15:32:10.721Z,17.03
2022-09-09T15:34:12.501Z,17.10
2022-09-09T15:36:20.229Z,17.06
2022-09-09T15:38:21.998Z,17.04
2022-09-09T15:40:23.839Z,16.98
2022-09-09T15:42:25.584Z,16.99
2022-09-09T15:44:27.354Z,17.06
2022-09-09T15:46:45.597Z,17.12
2022-09-09T15:48:49.039Z,16.93
2022-09-09T15:51:10.853Z,16.88
2022-09-09T15:53:21.465Z,16.89
2022-09-09T15:55:23.283Z,16.93
2022-09-09T15:57:25.047Z,16.98
2022-09-09T15:59:28.911Z,16.97
2022-09-09T16:01:31.858Z,16.77
2022-09-09T16:03:41.657Z,16.78
2022-09-09T16:05:45.921Z,16.86
2022-09-09T16:07:47.659Z,16.70
2022-09-09T16:09:49.531Z,16.64
2022-09-09T16:11:51.682Z,16.64
2022-09-09T16:13:54.977Z,16.54
2022-09-09T16:15:56.764Z,16.58
2022-09-09T16:17:58.563Z,16.53
2022-09-09T16:20:00.290Z,16.51
2022-09-09T16:22:02.570Z,16.49
2022-09-09T16:24:06.357Z,16.54
2022-09-09T16:26:11.912Z,16.42
2022-09-09T16:28:13.646Z,16.33
2022-09-09T16:30:15.446Z,16.17
2022-09-09T16:32:17.183Z,16.20
2022-09-09T16:34:19.341Z,16.16
2022-09-09T16:36:27.242Z,16.13
2022-09-09T16:38:28.989Z,16.10
2022-09-09T16:40:30.789Z,16.17
2022-09-09T16:42:36.250Z,15.98
2022-09-09T16:44:40.682Z,16.00
2022-09-09T16:46:43.851Z,15.92
2022-09-09T16:48:46.877Z,15.86
2022-09-09T16:50:48.681Z,15.84
2022-09-09T16:52:50.506Z,15.90
2022-09-09T16:54:52.292Z,15.94
2022-09-09T16:56:54.063Z,15.86
2022-09-09T16:58:58.544Z,15.79
2022-09-09T17:01:01.109Z,15.88
2022-09-09T17:03:02.964Z,15.83
2022-09-09T17:05:06.461Z,15.86
2022-09-09T17:07:08.229Z,15.80
2022-09-09T17:09:12.031Z,15.69
2022-09-09T17:11:19.118Z,15.55
2022-09-09T17:13:20.921Z,15.58
2022-09-09T17:15:22.673Z,15.64
2022-09-09T17:17:31.720Z,15.74
2022-09-09T17:19:34.376Z,15.59
2022-09-09T17:21:36.532Z,15.50
2022-09-09T17:23:38.498Z,15.44
2022-09-09T17:25:40.338Z,15.49
2022-09-09T17:27:42.064Z,15.53
2022-09-09T17:29:43.815Z,15.62
2022-09-09T17:31:45.644Z,15.64
2022-09-09T17:33:49.552Z,15.62
2022-09-09T17:35:51.282Z,15.47
2022-09-09T17:37:54.716Z,15.50
2022-09-09T17:39:56.532Z,15.46
2022-09-09T17:41:58.429Z,15.50
2022-09-09T17:44:00.531Z,15.43
2022-09-09T17:46:26.912Z,15.23
2022-09-09T17:48:31.403Z,15.32
2022-09-09T17:50:33.166Z,15.34
2022-09-09T17:52:34.991Z,15.29
2022-09-09T17:54:36.720Z,15.15
2022-09-09T17:56:39.636Z,15.13
2022-09-09T17:58:41.999Z,15.28
2022-09-09T18:00:43.850Z,15.15
2022-09-09T18:02:45.594Z,15.14
2022-09-09T18:04:47.454Z,15.12
2022-09-09T18:06:52.034Z,15.08
2022-09-09T18:08:56.723Z,14.99
2022-09-09T18:10:58.557Z,14.90
2022-09-09T18:13:00.317Z,14.95
2022-09-09T18:15:04.333Z,14.96
2022-09-09T18:17:06.630Z,15.08
2022-09-09T18:19:10.171Z,15.16
2022-09-09T18:21:12.823Z,15.16
2022-09-09T18:23:14.585Z,15.07
2022-09-09T18:25:16.305Z,15.05
2022-09-09T18:27:19.624Z,15.08
2022-09-09T18:29:23.857Z,15.11
2022-09-09T18:31:27.596Z,15.23
2022-09-09T18:33:29.497Z,15.26
2022-09-09T18:35:31.231Z,15.27
2022-09-09T18:37:33.092Z,15.15
2022-09-09T18:39:35.211Z,15.02
2022-09-09T18:41:42.584Z,15.06
2022-09-09T18:43:45.228Z,15.07
2022-09-09T18:45:46.996Z,14.95
2022-09-09T18:47:48.813Z,15.04
2022-09-09T18:49:50.594Z,15.07
2022-09-09T18:51:53.190Z,15.09
2022-09-09T18:53:58.271Z,15.21
2022-09-09T18:56:05.671Z,15.14
2022-09-09T18:58:09.767Z,14.96
2022-09-09T19:00:11.928Z,14.88
2022-09-09T19:02:13.774Z,15.05
2022-09-09T19:04:16.424Z,15.04
2022-09-09T19:06:20.563Z,14.89
2022-09-09T19:08:22.713Z,14.96
2022-09-09T19:10:24.463Z,14.92
2022-09-09T19:12:26.237Z,14.98
2022-09-09T19:14:28.942Z,14.96
2022-09-09T19:16:33.139Z,14.88
2022-09-09T19:18:35.369Z,14.77
2022-09-09T19:20:37.336Z,14.75
2022-09-09T19:22:39.088Z,14.76
2022-09-09T19:24:41.072Z,14.81
2022-09-09T19:26:46.291Z,14.79
2022-09-09T19:28:48.530Z,14.87
2022-09-09T19:30:50.595Z,14.78
2022-09-09T19:32:53.937Z,14.85
2022-09-09T19:34:55.854Z,14.75
2022-09-09T19:36:57.863Z,14.73
2022-09-09T19:38:59.870Z,14.72
2022-09-09T19:41:10.127Z,14.74
2022-09-09T19:43:11.855Z,14.80
2022-09-09T19:45:13.571Z,14.73
2022-09-09T19:47:15.437Z,14.78
2022-09-09T19:49:17.274Z,14.75
2022-09-09T19:51:21.818Z,14.78
2022-09-09T19:53:23.547Z,14.73
2022-09-09T19:55:28.664Z,14.76
2022-09-09T19:57:30.644Z,14.75
2022-09-09T19:59:32.443Z,14.88
2022-09-09T20:01:40.238Z,14.96
2022-09-09T20:03:44.300Z,14.87
2022-09-09T20:05:46.080Z,14.80
2022-09-09T20:07:47.981Z,14.84
2022-09-09T20:09:50.157Z,14.90
2022-09-09T20:11:51.894Z,14.70
2022-09-09T20:13:54.320Z,14.75
2022-09-09T20:16:00.345Z,14.78
2022-09-09T20:18:02.191Z,14.92
2022-09-09T20:20:04.087Z,14.93
2022-09-09T20:22:06.100Z,15.01
2022-09-09T20:24:11.391Z,14.89
2022-09-09T20:26:16.093Z,14.68
2022-09-09T20:28:17.819Z,14.79
2022-09-09T20:30:19.805Z,14.67
2022-09-09T20:32:21.553Z,14.70
2022-09-09T20:34:23.265Z,14.63
2022-09-09T20:36:30.767Z,14.66
2022-09-09T20:38:32.861Z,14.60
2022-09-09T20:40:41.332Z,14.51
2022-09-09T20:42:43.115Z,14.56
2022-09-09T20:44:44.884Z,14.69
2022-09-09T20:46:48.692Z,14.63
2022-09-09T20:48:51.262Z,14.39
2022-09-09T20:50:53.016Z,14.45
2022-09-09T20:52:54.741Z,14.57
2022-09-09T20:54:56.475Z,14.71
2022-09-09T20:56:58.382Z,14.74
2022-09-09T20:59:01.273Z,14.67
2022-09-09T21:01:07.306Z,14.67
2022-09-09T21:03:09.113Z,14.77
2022-09-09T21:05:10.898Z,14.71
2022-09-09T21:07:12.900Z,14.86
2022-09-09T21:09:14.739Z,14.81
2022-09-09T21:11:16.583Z,14.89
2022-09-09T21:13:18.324Z,14.76
2022-09-09T21:15:20.095Z,14.65
2022-09-09T21:17:21.860Z,14.52
2022-09-09T21:19:23.608Z,14.56
2022-09-09T21:21:25.756Z,14.35
2022-09-09T21:23:27.655Z,14.41
2022-09-09T21:25:29.438Z,14.48
2022-09-09T21:27:31.563Z,14.46
2022-09-09T21:29:33.291Z,14.39
2022-09-09T21:31:35.061Z,14.52
2022-09-09T21:33:36.904Z,14.57
2022-09-09T21:35:40.533Z,14.61
2022-09-09T21:37:42.211Z,14.56
2022-09-09T21:39:44.298Z,14.63
2022-09-09T21:41:46.268Z,14.64
2022-09-09T21:43:52.933Z,14.73
2022-09-09T21:45:54.688Z,14.74
2022-09-09T21:47:56.417Z,14.61
2022-09-09T21:49:58.175Z,14.64
2022-09-09T21:52:00.002Z,14.45
2022-09-09T21:54:03.717Z,14.49
2022-09-09T21:56:06.913Z,14.33
2022-09-09T21:58:11.343Z,14.41
2022-09-09T22:00:13.559Z,14.31
2022-09-09T22:02:15.441Z,14.28
2022-09-09T22:04:17.339Z,14.34
2022-09-09T22:06:19.501Z,14.36
2022-09-09T22:08:21.394Z,14.36
2022-09-09T22:10:24.129Z,14.48
2022-09-09T22:12:26.358Z,14.46
2022-09-09T22:14:28.674Z,14.44
2022-09-09T22:16:31.997Z,14.52
2022-09-09T22:18:34.240Z,14.67
2022-09-09T22:20:43.095Z,14.83
2022-09-09T22:22:45.373Z,14.58
2022-09-09T22:24:47.468Z,14.44
2022-09-09T22:26:49.342Z,14.56
2022-09-09T22:28:51.906Z,14.58
2022-09-09T22:30:53.768Z,14.55
2022-09-09T22:32:57.559Z,14.55
2022-09-09T22:34:59.369Z,14.59
2022-09-09T22:37:05.400Z,14.54
2022-09-09T22:39:07.214Z,14.55
2022-09-09T22:41:10.543Z,14.61
2022-09-09T22:43:18.094Z,14.56
2022-09-09T22:45:21.431Z,14.50
2022-09-09T22:47:24.225Z,14.50
2022-09-09T22:49:26.236Z,14.39
2022-09-09T22:51:28.035Z,14.43
2022-09-09T22:53:30.187Z,14.41
2022-09-09T22:55:32.629Z,14.50
2022-09-09T22:57:34.410Z,14.52
2022-09-09T22:59:36.451Z,14.59
2022-09-09T23:01:38.300Z,14.42
2022-09-09T23:03:40.408Z,14.43
2022-09-09T23:05:42.264Z,14.45
2022-09-09T23:07:44.073Z,14.55
2022-09-09T23:09:45.934Z,14.43
2022-09-09T23:11:47.707Z,14.36
2022-09-09T23:13:51.994Z,14.31
2022-09-09T23:15:54.007Z,14.34
2022-09-09T23:17:55.812Z,14.33
2022-09-09T23:19:57.569Z,14.28
2022-09-09T23:21:59.306Z,14.18
2022-09-09T23:24:01.243Z,14.39
2022-09-09T23:26:06.881Z,14.44
2022-09-09T23:28:08.695Z,14.33
2022-09-09T23:30:11.135Z,14.21
2022-09-09T23:32:13.033Z,14.12
2022-09-09T23:34:14.851Z,14.03
2022-09-09T23:36:19.886Z,14.16
2022-09-09T23:38:21.636Z,14.07
2022-09-09T23:40:23.410Z,14.12
2022-09-09T23:42:26.505Z,14.27
2022-09-09T23:44:28.277Z,14.26
2022-09-09T23:46:32.234Z,14.08
2022-09-09T23:48:34.703Z,14.10
2022-09-09T23:50:36.648Z,14.09
2022-09-09T23:52:39.004Z,14.15
2022-09-09T23:54:40.987Z,14.24
2022-09-09T23:56:42.863Z,14.41
2022-09-09T23:58:45.660Z,14.25
